Time;durP1;ratioP1;P1;durP2;ratioP2;P2;SDS_P1;SDS_P2;PMS_P1;PMS_P2;Temp;Humidity;BMP_temperature;BMP_pressure;BME280_temperature;BME280_humidity;BME280_pressure;Samples;Min_cycle;Max_cycle;Signal;HPM_P1;HPM_P2
2022/05/15 00:00:54;;;;;;;;;;;;;;;;;;5067523;28;20043;-77
2022/05/15 00:03:22;;;;;;;12.00;4.07;;;;;;;;;;5052702;28;19913;-77
2022/05/15 00:06:13;;;;;;;6.65;2.40;;;;;;;;;;5052783;28;20763;-77
2022/05/15 00:08:39;;;;;;;7.35;2.90;;;;;;;;;;5052843;28;20041;-77
2022/05/15 00:11:09;;;;;;;6.53;3.13;;;;;;;;;;5052759;28;20387;-77
2022/05/15 00:13:35;;;;;;;7.90;2.97;;;;;;;;;;5069667;28;20023;-77
2022/05/15 00:16:01;;;;;;;8.90;2.72;;;;;;;;;;5052679;28;20025;-77
2022/05/15 00:18:26;;;;;;;7.80;3.35;;;;;;;;;;5052895;28;20106;-77
2022/05/15 00:20:52;;;;;;;5.47;3.03;;;;;;;;;;5035873;28;20021;-77
2022/05/15 00:23:20;;;;;;;6.25;2.85;;;;;;;;;;5052321;28;20049;-77
2022/05/15 00:25:46;;;;;;;9.68;3.40;;;;;;;;;;5069100;28;20387;-77
2022/05/15 00:28:13;;;;;;;7.93;3.15;;;;;;;;;;5068922;28;20021;-76
2022/05/15 00:30:38;;;;;;;7.38;2.65;;;;;;;;;;5053704;28;20033;-77
2022/05/15 00:33:04;;;;;;;5.55;2.60;;;;;;;;;;5068863;28;20395;-77
2022/05/15 00:35:30;;;;;;;10.32;3.15;;;;;;;;;;5052301;28;20075;-77
2022/05/15 00:37:56;;;;;;;12.38;3.28;;;;;;;;;;5053505;28;20040;-76
2022/05/15 00:40:22;;;;;;;7.65;3.05;;;;;;;;;;5052393;28;20449;-77
2022/05/15 00:42:48;;;;;;;8.27;3.20;;;;;;;;;;5052179;28;20025;-77
2022/05/15 00:45:15;;;;;;;10.07;3.30;;;;;;;;;;5051950;28;20170;-77
2022/05/15 00:47:41;;;;;;;10.77;3.88;;;;;;;;;;5068814;28;20032;-77
2022/05/15 00:50:10;;;;;;;10.25;3.33;;;;;;;;;;5068207;28;20025;-77
2022/05/15 00:52:38;;;;;;;7.25;2.88;;;;;;;;;;5053367;28;20071;-77
2022/05/15 00:55:15;;;;;;;9.43;2.88;;;;;;;;;;5052515;28;20048;-78
2022/05/15 00:57:44;;;;;;;9.25;2.58;;;;;;;;;;5071977;28;20023;-76
2022/05/15 01:00:14;;;;;;;6.53;2.60;;;;;;;;;;5055496;28;20016;-76
2022/05/15 01:02:42;;;;;;;8.93;3.10;;;;;;;;;;5073257;28;20025;-76
2022/05/15 01:05:10;;;;;;;9.98;2.85;;;;;;;;;;5055307;28;20028;-77
2022/05/15 01:07:35;;;;;;;9.45;2.72;;;;;;;;;;5071948;28;20039;-77
2022/05/15 01:10:01;;;;;;;11.50;3.17;;;;;;;;;;5072991;28;20032;-76
2022/05/15 01:12:27;;;;;;;5.05;2.53;;;;;;;;;;5071684;28;20048;-77
2022/05/15 01:14:53;;;;;;;5.70;2.65;;;;;;;;;;5072933;28;20029;-76
2022/05/15 01:17:18;;;;;;;10.55;3.30;;;;;;;;;;5071470;28;20500;-76
2022/05/15 01:19:44;;;;;;;9.48;2.85;;;;;;;;;;5071484;28;20021;-77
2022/05/15 01:22:14;;;;;;;8.82;3.17;;;;;;;;;;5054667;28;20119;-77
2022/05/15 01:24:39;;;;;;;8.18;2.83;;;;;;;;;;5071306;28;20498;-77
2022/05/15 01:27:08;;;;;;;6.10;2.95;;;;;;;;;;5072663;28;20032;-77
2022/05/15 01:29:37;;;;;;;7.97;2.83;;;;;;;;;;5071573;28;20021;-77
2022/05/15 01:32:03;;;;;;;7.82;3.03;;;;;;;;;;5071313;28;20016;-77
2022/05/15 01:34:29;;;;;;;10.52;4.00;;;;;;;;;;5054598;28;20174;-77
2022/05/15 01:36:55;;;;;;;8.25;2.97;;;;;;;;;;5070932;28;20493;-76
2022/05/15 01:39:20;;;;;;;7.30;2.72;;;;;;;;;;5054561;28;20431;-77
2022/05/15 01:41:46;;;;;;;8.88;3.40;;;;;;;;;;5054409;28;20028;-76
2022/05/15 01:44:11;;;;;;;9.82;3.42;;;;;;;;;;5038132;28;20395;-77
2022/05/15 01:46:37;;;;;;;8.32;2.92;;;;;;;;;;5070983;28;20446;-77
2022/05/15 01:49:06;;;;;;;7.45;2.97;;;;;;;;;;5054420;28;20427;-77
2022/05/15 01:51:33;;;;;;;10.40;3.42;;;;;;;;;;5071145;28;20054;-77
2022/05/15 01:54:00;;;;;;;7.85;3.40;;;;;;;;;;5070901;28;20489;-77
2022/05/15 01:56:25;;;;;;;6.72;2.85;;;;;;;;;;5070751;28;20099;-77
2022/05/15 01:58:50;;;;;;;12.48;3.08;;;;;;;;;;5070923;28;20029;-76
2022/05/15 02:01:16;;;;;;;6.00;2.67;;;;;;;;;;5072032;28;20028;-77
2022/05/15 02:03:41;;;;;;;7.50;2.70;;;;;;;;;;5070721;28;20032;-77
2022/05/15 02:06:07;;;;;;;10.80;3.05;;;;;;;;;;5072264;28;20025;-76
2022/05/15 02:08:33;;;;;;;9.25;2.83;;;;;;;;;;5053822;28;20500;-76
2022/05/15 02:10:59;;;;;;;7.65;2.97;;;;;;;;;;5071916;28;20178;-77
2022/05/15 02:13:25;;;;;;;9.35;2.88;;;;;;;;;;5071149;28;20025;-76
2022/05/15 02:15:51;;;;;;;9.38;2.92;;;;;;;;;;5054094;28;20027;-76
2022/05/15 02:18:16;;;;;;;8.63;3.10;;;;;;;;;;5054113;28;20033;-76
2022/05/15 02:20:42;;;;;;;10.65;3.75;;;;;;;;;;5037327;28;20025;-76
2022/05/15 02:23:08;;;;;;;6.95;2.70;;;;;;;;;;5053974;28;20036;-76
2022/05/15 02:25:33;;;;;;;8.70;3.08;;;;;;;;;;5070933;28;20071;-76
2022/05/15 02:27:59;;;;;;;12.15;2.67;;;;;;;;;;5053769;28;20475;-76
2022/05/15 02:30:24;;;;;;;7.50;2.80;;;;;;;;;;5037028;28;20029;-76
2022/05/15 02:32:50;;;;;;;7.72;3.28;;;;;;;;;;5071745;28;20056;-77
2022/05/15 02:35:17;;;;;;;9.98;3.10;;;;;;;;;;5070687;28;20028;-78
2022/05/15 02:37:44;;;;;;;6.13;2.70;;;;;;;;;;5053706;28;20028;-77
2022/05/15 02:40:11;;;;;;;9.07;2.50;;;;;;;;;;5053674;28;20033;-77
2022/05/15 02:42:37;;;;;;;9.43;3.33;;;;;;;;;;5070655;28;20032;-77
2022/05/15 02:45:04;;;;;;;9.07;2.90;;;;;;;;;;5070396;28;20064;-77
2022/05/15 02:47:29;;;;;;;8.18;2.97;;;;;;;;;;5071817;28;20459;-77
2022/05/15 02:52:38;;;;;;;7.28;2.83;;;;;;;;;;5056593;28;20101;-77
2022/05/15 02:55:04;;;;;;;7.13;2.83;;;;;;;;;;5071482;28;20036;-77
2022/05/15 02:57:30;;;;;;;6.97;3.10;;;;;;;;;;5053547;28;20040;-77
2022/05/15 02:59:56;;;;;;;7.50;2.83;;;;;;;;;;5070185;28;20024;-77
2022/05/15 03:02:21;;;;;;;11.15;3.75;;;;;;;;;;5070226;28;20470;-77
2022/05/15 03:04:49;;;;;;;5.68;2.40;;;;;;;;;;5053585;28;20199;-77
2022/05/15 03:07:14;;;;;;;5.63;2.42;;;;;;;;;;5053699;28;20119;-77
2022/05/15 03:09:40;;;;;;;7.75;2.85;;;;;;;;;;5036941;28;20120;-77
2022/05/15 03:12:06;;;;;;;9.70;3.35;;;;;;;;;;5053442;28;20095;-77
2022/05/15 03:14:31;;;;;;;9.88;2.92;;;;;;;;;;5055566;28;20050;-77
2022/05/15 03:16:57;;;;;;;6.50;2.63;;;;;;;;;;5075080;28;20040;-77
2022/05/15 03:19:22;;;;;;;7.65;2.72;;;;;;;;;;5074956;28;20020;-77
2022/05/15 03:21:47;;;;;;;9.38;3.38;;;;;;;;;;5056767;28;20142;-77
2022/05/15 03:24:13;;;;;;;10.88;3.20;;;;;;;;;;5056784;28;20079;-77
2022/05/15 03:26:45;;;;;;;10.23;3.45;;;;;;;;;;5075048;28;20060;-77
2022/05/15 03:29:12;;;;;;;9.60;3.05;;;;;;;;;;5073775;28;20359;-77
2022/05/15 03:31:39;;;;;;;16.05;3.13;;;;;;;;;;5073439;28;20025;-77
2022/05/15 03:34:10;;;;;;;9.77;3.10;;;;;;;;;;5073380;28;20104;-77
2022/05/15 03:36:36;;;;;;;7.80;3.00;;;;;;;;;;5075049;28;20025;-77
2022/05/15 03:39:03;;;;;;;9.20;3.35;;;;;;;;;;5073714;28;20363;-77
2022/05/15 03:41:28;;;;;;;8.32;3.45;;;;;;;;;;5073203;28;20062;-77
2022/05/15 03:43:53;;;;;;;8.25;2.53;;;;;;;;;;5073030;28;20059;-77
2022/05/15 03:46:19;;;;;;;7.05;2.53;;;;;;;;;;5073493;28;20416;-76
2022/05/15 03:48:44;;;;;;;8.27;3.17;;;;;;;;;;5039902;28;20036;-76
2022/05/15 03:51:09;;;;;;;6.93;2.72;;;;;;;;;;5056531;28;20482;-76
2022/05/15 03:53:35;;;;;;;7.60;2.78;;;;;;;;;;5073277;28;20348;-77
2022/05/15 03:56:02;;;;;;;5.90;2.67;;;;;;;;;;5074458;28;20084;-77
2022/05/15 03:58:35;;;;;;;8.23;2.72;;;;;;;;;;5073043;28;20032;-79
2022/05/15 04:01:00;;;;;;;7.88;2.97;;;;;;;;;;5056424;28;20028;-76
2022/05/15 04:03:26;;;;;;;8.43;2.92;;;;;;;;;;5056312;28;20089;-77
2022/05/15 04:05:51;;;;;;;8.82;3.08;;;;;;;;;;5074399;28;20051;-76
2022/05/15 04:08:17;;;;;;;6.55;2.63;;;;;;;;;;5074178;28;20417;-76
2022/05/15 04:10:42;;;;;;;9.98;3.28;;;;;;;;;;5039724;28;20028;-76
2022/05/15 04:13:08;;;;;;;6.32;2.65;;;;;;;;;;5074160;28;20386;-76
2022/05/15 04:15:34;;;;;;;7.68;2.75;;;;;;;;;;5055922;28;20102;-76
2022/05/15 04:17:59;;;;;;;7.82;3.08;;;;;;;;;;5055823;28;20375;-76
2022/05/15 04:20:28;;;;;;;10.57;2.80;;;;;;;;;;5072477;28;20213;-76
2022/05/15 04:22:53;;;;;;;10.68;2.88;;;;;;;;;;5072887;28;20639;-77
2022/05/15 04:25:20;;;;;;;8.45;2.83;;;;;;;;;;5072913;28;20048;-76
2022/05/15 04:27:45;;;;;;;5.63;2.80;;;;;;;;;;5072654;28;20031;-76
2022/05/15 04:30:13;;;;;;;7.00;2.70;;;;;;;;;;5055823;28;20028;-76
2022/05/15 04:32:39;;;;;;;7.63;2.90;;;;;;;;;;5056427;28;20017;-77
2022/05/15 04:35:05;;;;;;;8.07;2.58;;;;;;;;;;5056298;28;20036;-77
2022/05/15 04:37:30;;;;;;;9.75;2.80;;;;;;;;;;5073463;28;20043;-77
2022/05/15 04:39:56;;;;;;;7.72;2.75;;;;;;;;;;5056447;28;20024;-77
2022/05/15 04:42:21;;;;;;;7.25;2.70;;;;;;;;;;5072858;28;20032;-77
2022/05/15 04:44:46;;;;;;;7.63;2.88;;;;;;;;;;5074037;28;20035;-77
2022/05/15 04:47:13;;;;;;;5.78;2.30;;;;;;;;;;5074001;28;20024;-77
2022/05/15 04:49:38;;;;;;;7.40;2.78;;;;;;;;;;5056059;28;20445;-78
2022/05/15 04:52:04;;;;;;;7.78;2.75;;;;;;;;;;5072900;28;20033;-77
2022/05/15 04:54:29;;;;;;;6.65;2.53;;;;;;;;;;5055969;28;20029;-78
2022/05/15 04:56:55;;;;;;;6.78;2.67;;;;;;;;;;5072515;28;20072;-78
2022/05/15 04:59:20;;;;;;;8.05;2.67;;;;;;;;;;5055892;28;20029;-77
2022/05/15 05:01:46;;;;;;;7.18;2.60;;;;;;;;;;5072953;28;20047;-78
2022/05/15 05:04:11;;;;;;;8.70;2.75;;;;;;;;;;5072326;28;20021;-77
2022/05/15 05:06:37;;;;;;;10.02;2.58;;;;;;;;;;5073783;28;20040;-76
2022/05/15 05:09:02;;;;;;;6.70;2.47;;;;;;;;;;5055850;28;20441;-77
2022/05/15 05:11:27;;;;;;;7.55;2.47;;;;;;;;;;5072381;28;20482;-76
2022/05/15 05:13:53;;;;;;;9.63;2.80;;;;;;;;;;5073668;28;20470;-76
2022/05/15 05:16:18;;;;;;;5.45;2.50;;;;;;;;;;5072131;28;20091;-77
2022/05/15 05:18:44;;;;;;;6.15;2.40;;;;;;;;;;5073370;28;20035;-77
2022/05/15 05:21:09;;;;;;;7.50;2.60;;;;;;;;;;5055223;28;20035;-77
2022/05/15 05:23:35;;;;;;;6.65;2.60;;;;;;;;;;5055191;28;20032;-76
2022/05/15 05:26:00;;;;;;;10.10;2.60;;;;;;;;;;5054860;28;20078;-77
2022/05/15 05:28:26;;;;;;;7.35;2.67;;;;;;;;;;5071876;28;20032;-76
2022/05/15 05:30:52;;;;;;;8.07;2.78;;;;;;;;;;5072775;28;20029;-77
2022/05/15 05:33:18;;;;;;;8.30;3.38;;;;;;;;;;5071599;28;20024;-76
2022/05/15 05:35:44;;;;;;;14.32;6.85;;;;;;;;;;5071325;28;20490;-77
2022/05/15 05:38:10;;;;;;;27.80;17.40;;;;;;;;;;5073130;28;20386;-77
2022/05/15 05:40:35;;;;;;;45.42;33.20;;;;;;;;;;5072052;28;20039;-76
2022/05/15 05:43:00;;;;;;;60.50;39.78;;;;;;;;;;5072353;28;20459;-77
2022/05/15 05:45:26;;;;;;;66.75;45.88;;;;;;;;;;5074192;28;20034;-76
2022/05/15 05:47:52;;;;;;;64.97;41.95;;;;;;;;;;5073806;28;20024;-77
2022/05/15 05:50:21;;;;;;;55.72;37.10;;;;;;;;;;5073073;28;20024;-77
2022/05/15 05:52:47;;;;;;;43.95;29.23;;;;;;;;;;5071240;28;20020;-76
2022/05/15 05:55:15;;;;;;;37.10;25.50;;;;;;;;;;5072574;28;20035;-76
2022/05/15 05:57:41;;;;;;;34.50;22.25;;;;;;;;;;5071000;28;20136;-76
2022/05/15 06:00:10;;;;;;;35.20;21.92;;;;;;;;;;5071168;28;20047;-76
2022/05/15 06:02:35;;;;;;;29.45;19.65;;;;;;;;;;5070834;28;20020;-75
2022/05/15 06:05:00;;;;;;;25.83;17.58;;;;;;;;;;5072906;28;20025;-76
2022/05/15 06:07:27;;;;;;;29.80;16.38;;;;;;;;;;5073533;28;20021;-75
2022/05/15 06:09:52;;;;;;;22.15;14.90;;;;;;;;;;5071385;28;20028;-75
2022/05/15 06:12:20;;;;;;;22.13;13.27;;;;;;;;;;5072042;28;20047;-76
2022/05/15 06:14:46;;;;;;;19.90;11.55;;;;;;;;;;5070890;28;20024;-76
2022/05/15 06:17:11;;;;;;;17.38;9.77;;;;;;;;;;5071207;28;20155;-75
2022/05/15 06:19:37;;;;;;;19.85;10.77;;;;;;;;;;5072921;28;20386;-76
2022/05/15 06:22:03;;;;;;;17.35;9.82;;;;;;;;;;5054089;28;20035;-76
2022/05/15 06:24:29;;;;;;;14.27;8.80;;;;;;;;;;5070443;28;20036;-75
2022/05/15 06:26:58;;;;;;;12.52;7.70;;;;;;;;;;5070530;28;20028;-76
2022/05/15 06:29:24;;;;;;;14.88;7.75;;;;;;;;;;5054302;28;20627;-76
2022/05/15 06:31:50;;;;;;;14.32;6.72;;;;;;;;;;5053743;28;20039;-76
2022/05/15 06:34:15;;;;;;;13.57;7.30;;;;;;;;;;5071764;28;20021;-76
2022/05/15 06:36:41;;;;;;;11.77;6.88;;;;;;;;;;5072176;28;20021;-76
2022/05/15 06:39:06;;;;;;;10.25;6.47;;;;;;;;;;5053912;28;20036;-77
2022/05/15 06:41:32;;;;;;;10.75;6.00;;;;;;;;;;5053708;28;20471;-77
2022/05/15 06:43:57;;;;;;;8.60;4.57;;;;;;;;;;5054023;28;20037;-76
2022/05/15 06:46:22;;;;;;;7.75;4.10;;;;;;;;;;5071771;28;20040;-76
2022/05/15 06:48:49;;;;;;;10.23;4.75;;;;;;;;;;5072555;28;20032;-73
2022/05/15 06:51:16;;;;;;;9.77;5.18;;;;;;;;;;5074517;28;20031;-75
2022/05/15 06:53:43;;;;;;;10.35;4.60;;;;;;;;;;5058238;28;20046;-75
2022/05/15 06:58:52;;;;;;;6.90;4.05;;;;;;;;;;5075007;28;20051;-75
2022/05/15 07:01:17;;;;;;;11.38;4.45;;;;;;;;;;5075523;28;20430;-74
2022/05/15 07:03:43;;;;;;;9.82;4.18;;;;;;;;;;5075691;28;20025;-75
2022/05/15 07:06:10;;;;;;;11.77;4.40;;;;;;;;;;5074309;28;20032;-75
2022/05/15 07:08:35;;;;;;;7.18;4.07;;;;;;;;;;5074258;28;20490;-75
2022/05/15 07:11:01;;;;;;;8.88;4.05;;;;;;;;;;5075639;28;20165;-75
2022/05/15 07:13:26;;;;;;;8.30;4.28;;;;;;;;;;5074142;28;20021;-75
2022/05/15 07:15:52;;;;;;;10.88;4.07;;;;;;;;;;5075362;28;20510;-75
2022/05/15 07:18:17;;;;;;;9.02;4.13;;;;;;;;;;5075310;28;20052;-75
2022/05/15 07:20:43;;;;;;;9.15;3.83;;;;;;;;;;5074096;28;20028;-76
2022/05/15 07:23:08;;;;;;;9.95;3.63;;;;;;;;;;5057246;28;20060;-76
2022/05/15 07:25:33;;;;;;;7.97;3.42;;;;;;;;;;5075164;28;20055;-76
2022/05/15 07:27:59;;;;;;;8.73;3.78;;;;;;;;;;5075495;28;20051;-76
2022/05/15 07:30:24;;;;;;;6.47;3.50;;;;;;;;;;5073936;28;20036;-76
2022/05/15 07:32:50;;;;;;;7.70;3.65;;;;;;;;;;5075155;28;20021;-77
2022/05/15 07:35:17;;;;;;;14.43;4.13;;;;;;;;;;5074041;28;20028;-77
2022/05/15 07:37:42;;;;;;;9.55;3.42;;;;;;;;;;5057320;28;20116;-77
2022/05/15 07:40:09;;;;;;;7.80;3.20;;;;;;;;;;5073958;28;20056;-80
2022/05/15 07:42:35;;;;;;;7.25;3.80;;;;;;;;;;5074896;28;20494;-82
2022/05/15 07:45:00;;;;;;;9.77;3.47;;;;;;;;;;5074924;28;20107;-79
2022/05/15 07:47:26;;;;;;;7.18;3.20;;;;;;;;;;5074737;28;20061;-79
2022/05/15 07:49:51;;;;;;;13.32;3.05;;;;;;;;;;5056746;28;20035;-80
2022/05/15 07:52:17;;;;;;;7.32;3.17;;;;;;;;;;5073083;28;20052;-80
2022/05/15 07:54:43;;;;;;;6.82;2.90;;;;;;;;;;5056492;28;20106;-80
2022/05/15 07:57:08;;;;;;;6.72;3.13;;;;;;;;;;5056349;28;20125;-81
2022/05/15 07:59:34;;;;;;;17.50;3.33;;;;;;;;;;5074383;28;20395;-82
2022/05/15 08:02:02;;;;;;;7.57;3.35;;;;;;;;;;5074523;28;20090;-81
2022/05/15 08:04:28;;;;;;;8.07;2.92;;;;;;;;;;5073309;28;20083;-80
2022/05/15 08:09:40;;;;;;;11.55;2.97;;;;;;;;;;5074604;28;20044;-80
2022/05/15 08:12:06;;;;;;;9.00;3.22;;;;;;;;;;5039633;28;20498;-81
2022/05/15 08:14:31;;;;;;;53.85;10.00;;;;;;;;;;5073933;28;20344;-83
2022/05/15 08:16:57;;;;;;;37.55;9.95;;;;;;;;;;5074129;28;20094;-79
2022/05/15 08:24:52;;;;;;;17.90;4.50;;;;;;;;;;5073361;28;20007;-82
2022/05/15 08:27:18;;;;;;;16.58;4.88;;;;;;;;;;5074045;28;20073;-83
2022/05/15 08:29:43;;;;;;;12.73;3.50;;;;;;;;;;5056303;28;20444;-82
2022/05/15 08:32:09;;;;;;;8.55;3.40;;;;;;;;;;5074418;28;20035;-83
2022/05/15 08:34:35;;;;;;;6.18;2.90;;;;;;;;;;5074303;28;20031;-82
2022/05/15 08:37:01;;;;;;;10.52;3.50;;;;;;;;;;5073095;28;20116;-82
2022/05/15 08:39:28;;;;;;;12.65;3.00;;;;;;;;;;5056237;28;20077;-83
2022/05/15 08:42:07;;;;;;;8.55;3.53;;;;;;;;;;5056159;28;20033;-82
2022/05/15 08:44:41;;;;;;;9.00;3.00;;;;;;;;;;5055977;28;20032;-82
2022/05/15 08:47:11;;;;;;;9.43;2.60;;;;;;;;;;5072502;28;20020;-83
2022/05/15 08:49:40;;;;;;;9.65;3.53;;;;;;;;;;5055939;28;20060;-83
2022/05/15 08:52:13;;;;;;;8.43;2.17;;;;;;;;;;5056137;28;20029;-82
2022/05/15 08:54:45;;;;;;;;;;;;;;;;;;5039357;28;20115;-84
2022/05/15 08:57:17;;;;;;;6.95;2.22;;;;;;;;;;5072258;28;20363;-83
2022/05/15 08:59:57;;;;;;;6.32;2.30;;;;;;;;;;5072246;28;20061;-82
2022/05/15 09:02:25;;;;;;;4.75;2.40;;;;;;;;;;5072313;28;20400;-82
2022/05/15 09:04:53;;;;;;;8.40;2.60;;;;;;;;;;5073493;28;20020;-81
2022/05/15 09:07:29;;;;;;;6.35;2.35;;;;;;;;;;5073675;28;20094;-82
2022/05/15 09:10:22;;;;;;;7.45;2.72;;;;;;;;;;5071976;28;20043;-82
2022/05/15 09:13:16;;;;;;;5.23;2.53;;;;;;;;;;5071378;28;20107;-82
2022/05/15 09:15:54;;;;;;;7.17;2.33;;;;;;;;;;5073362;28;20034;-82
2022/05/15 09:18:21;;;;;;;16.40;2.83;;;;;;;;;;5072296;28;20052;-83
2022/05/15 09:21:04;;;;;;;8.18;2.50;;;;;;;;;;5073187;28;20039;-80
2022/05/15 09:23:35;;;;;;;9.13;2.50;;;;;;;;;;5055145;28;20048;-80
2022/05/15 09:26:14;;;;;;;6.93;3.00;;;;;;;;;;5071917;28;20020;-80
2022/05/15 09:28:46;;;;;;;9.77;2.58;;;;;;;;;;5056351;28;20473;-80
2022/05/15 09:31:42;;;;;;;7.57;2.38;;;;;;;;;;5057517;28;20024;-81
2022/05/15 09:34:10;;;;;;;5.75;2.42;;;;;;;;;;5039667;28;20115;-80
2022/05/15 09:36:35;;;;;;;7.70;2.60;;;;;;;;;;5075389;28;20041;-80
2022/05/15 09:39:18;;;;;;;4.68;2.13;;;;;;;;;;5074332;28;20046;-81
2022/05/15 09:44:34;;;;;;;7.63;2.25;;;;;;;;;;5059485;28;20094;-81
2022/05/15 09:47:14;;;;;;;6.28;2.58;;;;;;;;;;5073393;28;20024;-82
2022/05/15 09:49:40;;;;;;;8.13;2.60;;;;;;;;;;5074241;28;20372;-81
2022/05/15 09:52:21;;;;;;;5.55;2.47;;;;;;;;;;5073976;28;20047;-82
2022/05/15 09:54:49;;;;;;;9.23;2.20;;;;;;;;;;5072154;28;20016;-82
2022/05/15 09:57:24;;;;;;;5.47;2.10;;;;;;;;;;5071387;28;20511;-82
2022/05/15 09:59:57;;;;;;;5.47;2.58;;;;;;;;;;5071594;28;20028;-80
2022/05/15 10:02:37;;;;;;;3.95;2.10;;;;;;;;;;5072544;28;20020;-82
2022/05/15 10:05:12;;;;;;;11.85;2.78;;;;;;;;;;5071488;28;20032;-81
2022/05/15 10:07:44;;;;;;;14.77;3.72;;;;;;;;;;5054616;28;20390;-80
2022/05/15 10:10:27;;;;;;;36.92;6.38;;;;;;;;;;5071390;28;20039;-82
2022/05/15 10:12:55;;;;;;;40.30;7.45;;;;;;;;;;5075220;28;20023;-80
2022/05/15 10:15:21;;;;;;;22.80;6.32;;;;;;;;;;5074123;28;20026;-81
2022/05/15 10:18:04;;;;;;;16.38;5.00;;;;;;;;;;5074290;28;20024;-81
2022/05/15 10:20:34;;;;;;;19.63;5.55;;;;;;;;;;5074057;28;20032;-83
2022/05/15 10:23:03;;;;;;;33.28;6.20;;;;;;;;;;5072665;28;20029;-82
2022/05/15 10:25:28;;;;;;;19.02;5.75;;;;;;;;;;5056576;28;20024;-83
2022/05/15 10:28:17;;;;;;;27.30;7.45;;;;;;;;;;5075725;28;20122;-83
2022/05/15 10:31:01;;;;;;;21.80;6.47;;;;;;;;;;5048470;28;20044;-82
2022/05/15 10:33:27;;;;;;;22.88;6.53;;;;;;;;;;5075196;28;20054;-84
2022/05/15 10:36:06;;;;;;;18.95;6.40;;;;;;;;;;5057693;28;20394;-82
2022/05/15 10:39:06;;;;;;;21.85;5.15;;;;;;;;;;5072742;28;20097;-82
2022/05/15 10:41:38;;;;;;;18.33;5.22;;;;;;;;;;5057095;28;20016;-79
2022/05/15 10:44:21;;;;;;;22.58;5.30;;;;;;;;;;5072937;28;20515;-79
2022/05/15 10:46:54;;;;;;;19.60;4.85;;;;;;;;;;5056954;28;20036;-81
2022/05/15 10:49:47;;;;;;;12.23;4.53;;;;;;;;;;5056141;28;20040;-81
2022/05/15 10:52:37;;;;;;;13.30;5.00;;;;;;;;;;5056221;28;20070;-79
2022/05/15 10:58:02;;;;;;;9.40;3.10;;;;;;;;;;5072131;28;20097;-81
2022/05/15 11:00:54;;;;;;;10.27;3.58;;;;;;;;;;5072787;28;20024;-81
2022/05/15 11:03:25;;;;;;;10.45;3.45;;;;;;;;;;5056207;28;20032;-81
2022/05/15 11:06:30;;;;;;;7.30;3.00;;;;;;;;;;5075763;28;20039;-81
2022/05/15 11:09:07;;;;;;;9.73;2.72;;;;;;;;;;5074537;28;20028;-81
2022/05/15 11:11:51;;;;;;;6.53;2.63;;;;;;;;;;5057379;28;20104;-80
2022/05/15 11:14:22;;;;;;;7.53;2.63;;;;;;;;;;5056382;28;20024;-80
2022/05/15 11:17:06;;;;;;;8.20;2.40;;;;;;;;;;5057160;28;20355;-82
2022/05/15 11:19:40;;;;;;;6.60;2.60;;;;;;;;;;5055355;28;20532;-81
2022/05/15 11:22:26;;;;;;;7.43;2.63;;;;;;;;;;5070511;28;20024;-82
2022/05/15 11:25:08;;;;;;;6.82;2.65;;;;;;;;;;5070534;28;20433;-81
2022/05/15 11:27:55;;;;;;;3.97;2.30;;;;;;;;;;5070489;28;20056;-81
2022/05/15 11:30:24;;;;;;;5.63;2.45;;;;;;;;;;5053668;28;20128;-81
2022/05/15 11:32:52;;;;;;;5.03;2.45;;;;;;;;;;5071551;28;20024;-80
2022/05/15 11:35:17;;;;;;;7.32;2.13;;;;;;;;;;5073117;28;20028;-81
2022/05/15 11:37:52;;;;;;;5.38;2.00;;;;;;;;;;5075369;28;20039;-82
2022/05/15 11:40:37;;;;;;;7.45;2.20;;;;;;;;;;5075160;28;20463;-82
2022/05/15 11:43:30;;;;;;;6.85;2.50;;;;;;;;;;5057090;28;20025;-80
2022/05/15 11:45:58;;;;;;;5.93;2.23;;;;;;;;;;5057385;28;20105;-79
2022/05/15 11:48:25;;;;;;;8.20;2.50;;;;;;;;;;5075044;28;20337;-80
2022/05/15 11:50:56;;;;;;;3.92;2.10;;;;;;;;;;5073626;28;20391;-80
2022/05/15 11:53:49;;;;;;;4.80;2.35;;;;;;;;;;5074864;28;20020;-80
2022/05/15 11:56:24;;;;;;;5.13;2.30;;;;;;;;;;5069877;28;20041;-81
2022/05/15 11:58:56;;;;;;;6.13;2.20;;;;;;;;;;5053332;28;20031;-80
2022/05/15 12:01:24;;;;;;;6.25;2.35;;;;;;;;;;5070143;28;20052;-80
2022/05/15 12:03:56;;;;;;;7.10;2.40;;;;;;;;;;5053775;28;20447;-81
2022/05/15 12:06:46;;;;;;;5.20;2.17;;;;;;;;;;5053466;28;20123;-81
2022/05/15 12:09:19;;;;;;;4.05;1.95;;;;;;;;;;5053356;28;20450;-81
2022/05/15 12:11:49;;;;;;;4.05;2.03;;;;;;;;;;5054763;28;20025;-81
2022/05/15 12:14:26;;;;;;;3.92;2.00;;;;;;;;;;5070215;28;20430;-80
2022/05/15 12:17:11;;;;;;;6.15;2.00;;;;;;;;;;5053498;28;20094;-81
2022/05/15 12:19:40;;;;;;;2.90;1.83;;;;;;;;;;5052916;28;20083;-81
2022/05/15 12:22:13;;;;;;;3.55;1.90;;;;;;;;;;5070040;28;20033;-82
2022/05/15 12:24:44;;;;;;;3.53;1.90;;;;;;;;;;5069619;28;20052;-81
2022/05/15 12:27:10;;;;;;;3.97;1.73;;;;;;;;;;5053199;28;20025;-81
2022/05/15 12:30:13;;;;;;;4.10;2.13;;;;;;;;;;5052749;28;20028;-81
2022/05/15 12:33:01;;;;;;;5.07;2.05;;;;;;;;;;5054336;28;20017;-81
2022/05/15 12:35:29;;;;;;;3.95;2.10;;;;;;;;;;5069761;28;20059;-81
2022/05/15 12:38:01;;;;;;;4.45;1.90;;;;;;;;;;5054056;28;20536;-81
2022/05/15 12:40:33;;;;;;;7.30;2.03;;;;;;;;;;5052649;28;20020;-81
2022/05/15 12:43:00;;;;;;;2.28;1.63;;;;;;;;;;5052980;28;20486;-81
2022/05/15 12:45:26;;;;;;;3.95;2.03;;;;;;;;;;5069488;28;20336;-81
2022/05/15 12:48:07;;;;;;;3.78;1.95;;;;;;;;;;5068699;28;20039;-81
2022/05/15 12:50:33;;;;;;;4.68;2.03;;;;;;;;;;5052772;28;20029;-81
2022/05/15 12:53:03;;;;;;;4.80;2.33;;;;;;;;;;5052774;28;20029;-80
2022/05/15 12:55:38;;;;;;;5.97;2.20;;;;;;;;;;5069047;28;20028;-81
2022/05/15 12:58:07;;;;;;;4.32;1.67;;;;;;;;;;5069561;28;20376;-80
2022/05/15 13:00:39;;;;;;;4.88;2.22;;;;;;;;;;5052583;28;20025;-81
2022/05/15 13:03:08;;;;;;;5.63;2.20;;;;;;;;;;5069356;28;20029;-81
2022/05/15 13:05:38;;;;;;;3.90;1.95;;;;;;;;;;5069105;28;20028;-81
2022/05/15 13:08:06;;;;;;;5.57;1.88;;;;;;;;;;5069192;28;20071;-84
2022/05/15 13:10:34;;;;;;;4.00;1.83;;;;;;;;;;5069346;28;20127;-83
2022/05/15 13:13:14;;;;;;;4.00;2.05;;;;;;;;;;5054607;28;20071;-83
2022/05/15 13:15:45;;;;;;;4.57;1.77;;;;;;;;;;5068350;28;20079;-83
2022/05/15 13:18:11;;;;;;;6.53;2.03;;;;;;;;;;5068667;28;20044;-82
2022/05/15 13:20:39;;;;;;;5.13;2.15;;;;;;;;;;5053206;28;20121;-82
2022/05/15 13:23:06;;;;;;;3.30;1.60;;;;;;;;;;5068671;28;20032;-83
2022/05/15 13:25:37;;;;;;;3.75;1.73;;;;;;;;;;5053312;28;20047;-82
2022/05/15 13:28:04;;;;;;;4.75;2.08;;;;;;;;;;5053341;28;20487;-83
2022/05/15 13:30:33;;;;;;;6.00;1.85;;;;;;;;;;5068587;28;20104;-83
2022/05/15 13:33:01;;;;;;;3.10;1.77;;;;;;;;;;5068125;28;20047;-82
2022/05/15 13:35:32;;;;;;;5.13;1.90;;;;;;;;;;5051728;28;20068;-83
2022/05/15 13:37:57;;;;;;;4.43;1.85;;;;;;;;;;5051984;28;20020;-83
2022/05/15 13:43:18;;;;;;;4.43;1.80;;;;;;;;;;5052181;28;20089;-83
2022/05/15 13:45:47;;;;;;;4.35;1.77;;;;;;;;;;5068340;28;20363;-82
2022/05/15 13:48:12;;;;;;;3.33;2.00;;;;;;;;;;5053315;28;20078;-84
2022/05/15 13:50:38;;;;;;;4.65;1.75;;;;;;;;;;5053382;28;20100;-83
2022/05/15 13:53:34;;;;;;;3.83;1.80;;;;;;;;;;5051538;28;20384;-82
2022/05/15 13:56:04;;;;;;;4.80;1.70;;;;;;;;;;5051284;28;20419;-82
2022/05/15 13:58:53;;;;;;;4.05;1.80;;;;;;;;;;5051382;28;20032;-82
2022/05/15 14:01:22;;;;;;;2.78;1.75;;;;;;;;;;5035393;28;20364;-82
2022/05/15 14:03:49;;;;;;;3.63;1.70;;;;;;;;;;5052983;28;20036;-82
2022/05/15 14:06:15;;;;;;;3.28;1.80;;;;;;;;;;5068403;28;20032;-83
2022/05/15 14:09:01;;;;;;;3.50;2.03;;;;;;;;;;5051370;28;20021;-82
2022/05/15 14:11:45;;;;;;;3.65;1.75;;;;;;;;;;5068337;28;20387;-82
2022/05/15 14:14:11;;;;;;;3.38;1.88;;;;;;;;;;5068243;28;20035;-81
2022/05/15 14:16:36;;;;;;;3.78;1.65;;;;;;;;;;5068101;28;20033;-85
2022/05/15 14:19:13;;;;;;;3.03;1.60;;;;;;;;;;5051479;28;20029;-81
2022/05/15 14:21:59;;;;;;;4.00;1.83;;;;;;;;;;5051634;28;20103;-84
2022/05/15 14:24:25;;;;;;;3.78;1.80;;;;;;;;;;5068896;28;20029;-84
2022/05/15 14:26:51;;;;;;;2.67;1.55;;;;;;;;;;5054126;28;20087;-84
2022/05/15 14:29:16;;;;;;;4.15;1.90;;;;;;;;;;5055395;28;20492;-83
2022/05/15 14:31:43;;;;;;;3.15;1.75;;;;;;;;;;5073282;28;20048;-83
2022/05/15 14:34:08;;;;;;;4.18;1.67;;;;;;;;;;5039603;28;20079;-84
2022/05/15 14:36:34;;;;;;;4.32;1.83;;;;;;;;;;5055937;28;20040;-85
2022/05/15 14:38:59;;;;;;;5.15;1.80;;;;;;;;;;5071024;28;20115;-85
2022/05/15 14:41:26;;;;;;;2.70;1.65;;;;;;;;;;5057409;28;20056;-84
2022/05/15 14:43:52;;;;;;;3.30;1.73;;;;;;;;;;5058403;28;20060;-84
2022/05/15 14:46:24;;;;;;;5.25;1.85;;;;;;;;;;5054739;28;20029;-85
2022/05/15 14:48:50;;;;;;;2.95;1.63;;;;;;;;;;5070805;28;20463;-84
2022/05/15 14:51:19;;;;;;;3.47;1.60;;;;;;;;;;5070006;28;20110;-83
2022/05/15 14:53:45;;;;;;;3.63;1.92;;;;;;;;;;5070142;28;20106;-84
2022/05/15 14:56:11;;;;;;;2.22;1.50;;;;;;;;;;5056711;28;20136;-84
2022/05/15 14:59:02;;;;;;;5.10;2.22;;;;;;;;;;5073860;28;20517;-84
2022/05/15 15:01:29;;;;;;;3.67;1.70;;;;;;;;;;5073627;28;20601;-84
2022/05/15 15:03:55;;;;;;;3.65;1.60;;;;;;;;;;5074087;28;20467;-83
2022/05/15 15:06:21;;;;;;;4.72;1.58;;;;;;;;;;5058049;28;20028;-83
2022/05/15 15:08:46;;;;;;;3.78;1.85;;;;;;;;;;5074823;28;20107;-83
2022/05/15 15:11:21;;;;;;;3.42;1.48;;;;;;;;;;5077587;28;20430;-83
2022/05/15 15:13:52;;;;;;;3.92;1.50;;;;;;;;;;5046613;28;20024;-83
2022/05/15 15:16:21;;;;;;;4.13;1.80;;;;;;;;;;5060611;28;20020;-83